createdAt,value
2023-07-29T00:02:27.730Z,20.82
2023-07-29T00:07:30.874Z,20.91
2023-07-29T00:12:32.432Z,21.00
2023-07-29T00:17:34.036Z,20.88
2023-07-29T00:22:35.594Z,20.88
2023-07-29T00:27:37.179Z,20.64
2023-07-29T00:32:39.123Z,20.60
2023-07-29T00:37:40.972Z,20.68
2023-07-29T00:42:42.569Z,20.72
2023-07-29T00:47:44.838Z,20.72
2023-07-29T00:52:47.123Z,20.77
2023-07-29T00:57:49.204Z,20.81
2023-07-29T01:02:51.083Z,20.82
2023-07-29T01:08:18.261Z,20.67
2023-07-29T01:13:49.178Z,20.67
2023-07-29T01:18:55.134Z,20.57
2023-07-29T01:23:59.988Z,20.53
2023-07-29T01:29:01.729Z,20.60
2023-07-29T01:34:13.229Z,20.54
2023-07-29T01:39:17.377Z,20.53
2023-07-29T01:44:20.104Z,20.64
2023-07-29T01:49:22.758Z,20.57
2023-07-29T01:54:24.409Z,20.50
2023-07-29T01:59:26.028Z,20.54
2023-07-29T02:04:27.864Z,20.59
2023-07-29T02:09:29.477Z,20.63
2023-07-29T02:14:31.025Z,20.48
2023-07-29T02:19:32.625Z,20.51
2023-07-29T02:24:34.234Z,20.44
2023-07-29T02:29:35.802Z,20.42
2023-07-29T02:34:37.443Z,20.43
2023-07-29T02:39:39.179Z,20.45
2023-07-29T02:44:41.354Z,20.36
2023-07-29T02:49:43.033Z,20.34
2023-07-29T02:54:44.609Z,20.37
2023-07-29T02:59:46.192Z,20.34
2023-07-29T03:04:49.228Z,20.34
2023-07-29T03:09:50.833Z,20.34
2023-07-29T03:14:52.440Z,20.40
2023-07-29T03:19:54.158Z,20.42
2023-07-29T03:24:55.731Z,20.43
2023-07-29T03:29:57.387Z,20.46
2023-07-29T03:34:58.952Z,20.51
2023-07-29T03:40:02.314Z,20.41
2023-07-29T03:45:07.019Z,20.25
2023-07-29T03:50:09.293Z,20.23
2023-07-29T03:55:11.053Z,20.23
2023-07-29T04:00:12.857Z,20.30
2023-07-29T04:05:17.477Z,20.36
2023-07-29T04:10:19.553Z,20.28
2023-07-29T04:15:21.432Z,20.25
2023-07-29T04:20:23.174Z,20.19
2023-07-29T04:25:24.753Z,20.13
2023-07-29T04:30:26.471Z,20.06
2023-07-29T04:35:28.131Z,20.04
2023-07-29T04:40:29.728Z,20.01
2023-07-29T04:45:31.852Z,19.95
2023-07-29T04:50:33.554Z,19.93
2023-07-29T04:55:35.195Z,20.00
2023-07-29T05:00:37.405Z,20.10
2023-07-29T05:05:39.109Z,20.16
2023-07-29T05:10:40.672Z,20.19
2023-07-29T05:15:42.394Z,20.19
2023-07-29T05:20:44.146Z,20.18
2023-07-29T05:25:45.782Z,20.17
2023-07-29T05:30:48.016Z,20.36
2023-07-29T05:35:49.744Z,20.34
2023-07-29T05:40:51.398Z,20.40
2023-07-29T05:45:53.060Z,20.26
2023-07-29T05:50:55.989Z,20.26
2023-07-29T05:55:57.720Z,20.37
2023-07-29T06:00:59.550Z,20.50
2023-07-29T06:06:01.432Z,20.76
2023-07-29T06:11:03.132Z,20.87
2023-07-29T06:16:05.043Z,20.81
2023-07-29T06:21:06.975Z,20.69
2023-07-29T06:26:08.942Z,20.70
2023-07-29T06:31:10.846Z,20.96
2023-07-29T06:36:12.930Z,20.89
2023-07-29T06:41:16.435Z,20.81
2023-07-29T06:46:19.095Z,20.75
2023-07-29T06:51:20.819Z,21.00
2023-07-29T06:56:22.398Z,20.94
2023-07-29T07:01:24.061Z,21.32
2023-07-29T07:06:25.739Z,21.68
2023-07-29T07:11:31.268Z,21.97
2023-07-29T07:16:33.002Z,21.98
2023-07-29T07:21:34.664Z,21.91
2023-07-29T07:26:38.344Z,21.67
2023-07-29T07:31:40.179Z,21.73
2023-07-29T07:36:44.115Z,21.84
2023-07-29T07:41:46.928Z,21.92
2023-07-29T07:46:48.548Z,21.65
2023-07-29T07:51:50.374Z,22.02
2023-07-29T07:56:52.240Z,22.47
2023-07-29T08:01:54.005Z,22.25
2023-07-29T08:06:55.555Z,22.79
2023-07-29T08:11:57.134Z,23.75
2023-07-29T08:16:58.780Z,23.37
2023-07-29T08:22:00.492Z,22.72
2023-07-29T08:27:02.283Z,23.57
2023-07-29T08:32:03.973Z,23.31
2023-07-29T08:37:05.818Z,23.37
2023-07-29T08:42:12.602Z,23.23
2023-07-29T08:47:14.323Z,23.00
2023-07-29T08:52:16.847Z,22.60
2023-07-29T08:57:18.934Z,22.73
2023-07-29T09:02:23.374Z,22.38
2023-07-29T09:07:26.289Z,22.39
2023-07-29T09:12:28.068Z,22.16
2023-07-29T09:17:33.593Z,22.10
2023-07-29T09:22:35.629Z,22.35
2023-07-29T09:27:37.422Z,22.82
2023-07-29T09:32:40.449Z,23.05
2023-07-29T09:37:42.093Z,22.60
2023-07-29T09:42:54.262Z,22.64
2023-07-29T09:47:58.770Z,22.64
2023-07-29T09:53:00.751Z,22.99
2023-07-29T09:58:03.212Z,23.27
2023-07-29T10:03:05.427Z,23.25
2023-07-29T10:08:07.786Z,23.46
2023-07-29T10:13:11.112Z,23.63
2023-07-29T10:18:13.241Z,23.65
2023-07-29T10:23:16.416Z,23.83
2023-07-29T10:28:23.256Z,24.50
2023-07-29T10:33:25.465Z,23.60
2023-07-29T10:38:27.494Z,23.32
2023-07-29T10:43:29.104Z,22.35
2023-07-29T10:48:33.609Z,22.07
2023-07-29T10:53:35.241Z,22.16
2023-07-29T10:58:36.828Z,20.96
2023-07-29T11:03:38.393Z,20.51
2023-07-29T11:08:39.975Z,21.24
2023-07-29T11:13:41.972Z,21.08
2023-07-29T11:18:45.186Z,20.48
2023-07-29T11:23:46.754Z,20.75
2023-07-29T11:28:48.462Z,21.03
2023-07-29T11:33:50.272Z,22.03
2023-07-29T11:38:51.842Z,21.86
2023-07-29T11:43:53.533Z,23.06
2023-07-29T11:48:55.931Z,23.13
2023-07-29T11:53:57.671Z,24.69
2023-07-29T11:58:59.431Z,24.21
2023-07-29T12:04:01.784Z,23.74
2023-07-29T12:09:03.462Z,25.39
2023-07-29T12:14:08.551Z,25.72
2023-07-29T12:19:13.097Z,26.99
2023-07-29T12:24:15.295Z,26.97
2023-07-29T12:29:18.541Z,27.49
2023-07-29T12:34:21.380Z,27.95
2023-07-29T12:39:31.511Z,28.96
2023-07-29T12:44:36.056Z,28.82
2023-07-29T12:49:37.678Z,29.29
2023-07-29T12:54:39.249Z,28.54
2023-07-29T12:59:40.913Z,26.34
2023-07-29T13:04:42.518Z,25.87
2023-07-29T13:09:44.258Z,25.33
2023-07-29T13:14:45.990Z,24.80
2023-07-29T13:19:47.588Z,24.63
2023-07-29T13:24:49.477Z,24.60
2023-07-29T13:29:51.185Z,23.93
2023-07-29T13:34:52.827Z,23.39
2023-07-29T13:39:54.460Z,22.76
2023-07-29T13:44:56.321Z,22.51
2023-07-29T13:49:57.907Z,22.23
2023-07-29T13:54:59.730Z,21.91
2023-07-29T14:00:01.315Z,21.91
2023-07-29T14:05:13.143Z,21.87
2023-07-29T14:10:14.885Z,21.88
2023-07-29T14:15:16.610Z,21.76
2023-07-29T14:20:20.524Z,21.96
2023-07-29T14:25:23.664Z,21.87
2023-07-29T14:30:25.412Z,21.84
2023-07-29T14:35:27.146Z,22.04
2023-07-29T14:40:28.725Z,22.33
2023-07-29T14:45:30.489Z,22.67
2023-07-29T14:50:32.104Z,22.93
2023-07-29T14:55:33.686Z,23.42
2023-07-29T15:00:35.302Z,23.50
2023-07-29T15:05:37.064Z,23.48
2023-07-29T15:10:38.746Z,23.64
2023-07-29T15:15:42.919Z,23.68
2023-07-29T15:20:45.652Z,23.37
2023-07-29T15:25:47.316Z,23.26
2023-07-29T15:30:49.222Z,24.06
2023-07-29T15:35:50.854Z,23.74
2023-07-29T15:40:52.673Z,24.71
2023-07-29T15:45:54.456Z,26.73
2023-07-29T15:50:56.082Z,27.19
2023-07-29T15:55:57.876Z,26.17
2023-07-29T16:00:59.545Z,24.49
2023-07-29T16:06:01.099Z,23.22
2023-07-29T16:11:03.116Z,22.54
2023-07-29T16:16:05.053Z,22.58
2023-07-29T16:21:06.788Z,22.38
2023-07-29T16:26:08.433Z,22.50
2023-07-29T16:31:10.198Z,22.76
2023-07-29T16:36:11.765Z,22.89
2023-07-29T16:41:35.748Z,23.68
2023-07-29T16:46:35.318Z,25.80
2023-07-29T16:51:37.246Z,25.79
2023-07-29T16:56:39.178Z,24.38
2023-07-29T17:01:41.292Z,23.66
2023-07-29T17:06:43.029Z,22.82
2023-07-29T17:11:44.734Z,22.40
2023-07-29T17:16:46.274Z,22.40
2023-07-29T17:21:47.824Z,22.50
2023-07-29T17:26:49.550Z,22.44
2023-07-29T17:31:51.283Z,22.15
2023-07-29T17:36:52.859Z,21.81
2023-07-29T17:41:54.574Z,21.60
2023-07-29T17:46:56.396Z,21.51
2023-07-29T17:51:58.025Z,21.45
2023-07-29T17:56:59.800Z,21.43
2023-07-29T18:02:01.404Z,21.35
2023-07-29T18:07:03.076Z,21.36
2023-07-29T18:12:05.162Z,21.42
2023-07-29T18:17:06.958Z,21.38
2023-07-29T18:22:08.781Z,21.27
2023-07-29T18:27:10.416Z,21.29
2023-07-29T18:32:12.101Z,21.20
2023-07-29T18:37:13.713Z,21.30
2023-07-29T18:42:15.327Z,21.49
2023-07-29T18:47:16.974Z,21.67
2023-07-29T18:52:18.650Z,21.48
2023-07-29T18:57:20.250Z,21.23
2023-07-29T19:02:21.929Z,21.08
2023-07-29T19:07:23.548Z,20.84
2023-07-29T19:12:25.144Z,20.66
2023-07-29T19:17:26.938Z,20.51
2023-07-29T19:22:28.491Z,20.44
2023-07-29T19:27:30.149Z,20.40
2023-07-29T19:32:32.385Z,20.31
2023-07-29T19:37:34.102Z,20.19
2023-07-29T19:42:35.707Z,19.97
2023-07-29T19:47:37.458Z,19.83
2023-07-29T19:52:39.387Z,19.71
2023-07-29T19:57:41.008Z,19.64
2023-07-29T20:02:42.573Z,19.46
2023-07-29T20:07:44.144Z,19.37
2023-07-29T20:12:45.815Z,19.32
2023-07-29T20:17:47.484Z,19.23
2023-07-29T20:22:49.104Z,19.18
2023-07-29T20:27:50.759Z,19.22
2023-07-29T20:32:52.451Z,19.27
2023-07-29T20:37:54.332Z,19.23
2023-07-29T20:42:56.035Z,19.36
2023-07-29T20:47:57.742Z,19.47
2023-07-29T20:52:59.469Z,19.42
2023-07-29T20:58:01.104Z,19.50
2023-07-29T21:03:02.734Z,19.51
2023-07-29T21:08:04.644Z,19.45
2023-07-29T21:13:06.278Z,19.30
2023-07-29T21:18:07.899Z,19.27
2023-07-29T21:23:09.545Z,19.06
2023-07-29T21:28:11.153Z,18.91
2023-07-29T21:33:12.880Z,18.76
2023-07-29T21:38:28.812Z,18.75
2023-07-29T21:43:31.253Z,19.03
2023-07-29T21:48:32.835Z,19.22
2023-07-29T21:53:34.393Z,19.29
2023-07-29T21:58:36.044Z,19.07
2023-07-29T22:03:37.669Z,19.09
2023-07-29T22:08:39.212Z,19.14
2023-07-29T22:13:40.764Z,19.09
2023-07-29T22:18:42.458Z,19.12
2023-07-29T22:23:58.253Z,19.11
2023-07-29T22:29:01.896Z,18.96
2023-07-29T22:34:03.825Z,18.79
2023-07-29T22:39:05.658Z,18.54
2023-07-29T22:44:07.252Z,18.42
2023-07-29T22:49:08.915Z,18.28
2023-07-29T22:54:10.504Z,18.29
2023-07-29T22:59:12.059Z,18.24
2023-07-29T23:04:13.694Z,18.19
2023-07-29T23:09:15.431Z,18.36
2023-07-29T23:14:16.996Z,18.45
2023-07-29T23:19:18.565Z,18.52
2023-07-29T23:24:20.231Z,18.49
2023-07-29T23:29:22.065Z,18.50
2023-07-29T23:34:23.762Z,18.29
2023-07-29T23:39:25.476Z,18.31
2023-07-29T23:44:27.158Z,18.31
2023-07-29T23:49:28.760Z,18.19
2023-07-29T23:54:32.592Z,18.20
2023-07-29T23:59:36.985Z,18.27
